Sheridan, Maine
Current Conditions -  °F | °C
As of 11:35 AM on Saturday 20 Dec 2014 (Local Time) from KPQI Reporting Station
Overcast Overcast  
Wind Chill: 12°   Ceiling: 1300
Heat Index: 12°   Visibility: 1.5mi
Dew Point:   Wind: 0mph
Humidity: 67%   Direction: NA
Pressure: 30.34"   Gusts: NA
Location:  46.66°N, 68.41°W
Report Text: KPQI 201635Z AUTO 00000KT 1 1/2SM OVC013 M11/M16 A3034 RMK AO1
Loading
Personal Weather Stations






























Interactive Weather Map New forecast layout! Learn more

10-Day Weather Forecast

Advertisements
Track Severe Weather on mobile